Time;durP1;ratioP1;P1;durP2;ratioP2;P2;SDS_P1;SDS_P2;PMS_P1;PMS_P2;Temp;Humidity;BMP_temperature;BMP_pressure;BME280_temperature;BME280_humidity;BME280_pressure;Samples;Min_cycle;Max_cycle;Signal;HPM_P1;HPM_P2
2022/06/28 00:02:32;;;;;;;6.60;3.97;;;24.40;98.30;;;;;;4952084;29;20262;-77
2022/06/28 00:05:18;;;;;;;6.80;4.43;;;24.70;98.30;;;;;;4953229;29;20058;-77
2022/06/28 00:08:04;;;;;;;8.40;4.55;;;24.90;98.20;;;;;;4953549;29;20423;-76
2022/06/28 00:10:50;;;;;;;8.48;4.40;;;25.00;98.20;;;;;;4953626;29;20059;-77
2022/06/28 00:13:36;;;;;;;15.43;5.80;;;25.10;98.90;;;;;;4953265;29;20455;-77
2022/06/28 00:16:22;;;;;;;10.38;5.18;;;24.90;99.20;;;;;;4952905;29;20045;-78
2022/06/28 00:19:08;;;;;;;10.57;4.93;;;24.90;99.50;;;;;;4952645;29;20062;-76
2022/06/28 00:21:55;;;;;;;7.32;5.10;;;24.90;99.90;;;;;;4948835;29;20091;-76
2022/06/28 00:24:41;;;;;;;10.25;6.68;;;25.00;99.70;;;;;;4950650;29;20130;-77
2022/06/28 00:27:27;;;;;;;7.35;5.00;;;24.90;99.70;;;;;;4947237;29;20501;-77
2022/06/28 00:30:13;;;;;;;6.85;4.97;;;24.80;99.50;;;;;;4948893;29;20054;-77
2022/06/28 00:32:59;;;;;;;9.70;4.90;;;24.80;99.80;;;;;;4940673;29;20098;-77
2022/06/28 00:35:46;;;;;;;7.15;4.28;;;24.80;99.90;;;;;;4933933;29;20507;-78
2022/06/28 00:38:32;;;;;;;10.38;4.35;;;24.70;99.90;;;;;;4933787;29;20046;-77
2022/06/28 00:41:19;;;;;;;7.75;4.63;;;24.60;99.90;;;;;;4933667;29;20187;-79
2022/06/28 00:44:06;;;;;;;11.63;5.68;;;24.60;99.90;;;;;;4934041;29;20054;-77
2022/06/28 00:46:52;;;;;;;8.38;4.15;;;24.60;99.90;;;;;;4936212;29;20054;-78
2022/06/28 00:49:40;;;;;;;8.75;4.93;;;24.40;99.90;;;;;;4933864;29;20054;-78
2022/06/28 00:52:26;;;;;;;8.35;5.10;;;24.30;99.90;;;;;;4938717;29;20167;-77
2022/06/28 00:55:12;;;;;;;9.27;4.93;;;24.20;99.90;;;;;;4943190;29;20059;-77
2022/06/28 00:57:58;;;;;;;7.43;4.22;;;24.30;99.90;;;;;;4937086;29;20415;-77
2022/06/28 01:00:47;;;;;;;8.85;4.55;;;24.40;99.90;;;;;;4930254;29;20100;-76
2022/06/28 01:03:33;;;;;;;8.85;4.55;;;24.50;99.90;;;;;;4918355;29;20058;-77
2022/06/28 01:06:19;;;;;;;8.13;4.13;;;24.40;99.90;;;;;;4918403;29;20058;-77
2022/06/28 01:09:05;;;;;;;6.18;4.47;;;24.40;99.90;;;;;;4930773;29;20559;-76
2022/06/28 01:11:51;;;;;;;8.93;4.38;;;24.40;99.90;;;;;;4918539;29;20063;-76
2022/06/28 01:14:37;;;;;;;6.93;4.20;;;24.50;99.90;;;;;;4918457;29;20063;-76
2022/06/28 01:17:23;;;;;;;11.43;4.57;;;24.30;99.90;;;;;;4918187;29;20095;-77
2022/06/28 01:20:10;;;;;;;7.68;4.43;;;24.40;99.90;;;;;;4918327;29;20180;-74
2022/06/28 01:22:56;;;;;;;8.07;4.43;;;24.40;99.90;;;;;;4918532;29;20051;-74
2022/06/28 01:25:44;;;;;;;8.93;4.22;;;24.30;99.90;;;;;;4930123;29;20080;-74
2022/06/28 01:28:31;;;;;;;8.00;4.88;;;24.10;99.90;;;;;;4917899;29;20103;-78
2022/06/28 01:31:18;;;;;;;7.18;4.30;;;24.10;99.90;;;;;;4918067;29;20298;-75
2022/06/28 01:34:05;;;;;;;8.73;4.75;;;24.00;99.90;;;;;;4920208;29;20197;-75
2022/06/28 01:36:50;;;;;;;15.85;6.15;;;24.00;99.90;;;;;;4937168;29;20088;-76
2022/06/28 01:39:37;;;;;;;8.27;4.30;;;23.90;99.90;;;;;;4936843;29;20058;-77
2022/06/28 01:42:23;;;;;;;6.63;4.43;;;23.90;99.90;;;;;;4937101;29;20076;-77
2022/06/28 01:45:09;;;;;;;9.20;4.35;;;23.60;99.90;;;;;;4936715;29;20544;-77
2022/06/28 01:47:55;;;;;;;19.20;5.55;;;23.50;99.90;;;;;;4936791;29;20083;-77
2022/06/28 01:50:41;;;;;;;8.13;4.32;;;23.50;99.90;;;;;;4936409;29;20063;-77
2022/06/28 01:53:27;;;;;;;6.05;3.92;;;23.40;99.90;;;;;;4936652;29;20198;-75
2022/06/28 01:56:13;;;;;;;6.20;4.05;;;23.40;99.90;;;;;;4936482;29;20563;-75
2022/06/28 01:58:59;;;;;;;9.18;4.32;;;23.40;99.90;;;;;;4935693;29;20537;-75
2022/06/28 02:01:44;;;;;;;5.95;4.07;;;23.30;99.90;;;;;;4936331;29;20055;-75
2022/06/28 02:04:31;;;;;;;6.63;4.10;;;23.30;99.90;;;;;;4935492;29;20062;-76
2022/06/28 02:07:16;;;;;;;8.85;4.20;;;23.30;99.90;;;;;;4936693;29;20396;-75
2022/06/28 02:10:03;;;;;;;8.50;4.30;;;23.30;99.90;;;;;;4936492;29;20054;-75
2022/06/28 02:12:50;;;;;;;8.13;4.20;;;23.10;99.90;;;;;;4936346;29;20055;-74
2022/06/28 02:15:36;;;;;;;7.22;4.50;;;23.10;99.90;;;;;;4936287;29;20131;-75
2022/06/28 02:18:22;;;;;;;8.90;4.95;;;23.10;99.90;;;;;;4936427;29;20054;-75
2022/06/28 02:21:07;;;;;;;6.22;4.20;;;23.00;99.90;;;;;;4935912;29;20395;-77
2022/06/28 02:23:54;;;;;;;7.00;4.63;;;22.90;99.90;;;;;;4936005;29;20050;-76
2022/06/28 02:26:40;;;;;;;5.78;4.00;;;22.80;99.90;;;;;;4936355;29;20136;-75
2022/06/28 02:29:26;;;;;;;7.32;4.38;;;22.60;99.90;;;;;;4935183;29;20054;-74
2022/06/28 02:32:11;;;;;;;7.45;4.40;;;22.70;99.90;;;;;;4948513;29;20138;-74
2022/06/28 02:41:06;;;;;;;7.57;4.55;;;23.10;99.90;;;;;;4936155;29;20106;-75
2022/06/28 02:43:52;;;;;;;8.05;4.07;;;23.00;99.90;;;;;;4935754;29;20420;-76
2022/06/28 02:46:37;;;;;;;6.60;4.18;;;23.10;99.90;;;;;;4934918;29;20122;-76
2022/06/28 02:49:23;;;;;;;8.88;4.57;;;23.20;99.90;;;;;;4935685;29;20051;-75
2022/06/28 02:52:09;;;;;;;6.53;4.35;;;23.00;99.90;;;;;;4934847;29;20054;-76
2022/06/28 02:54:55;;;;;;;8.15;4.35;;;23.00;99.90;;;;;;4935205;29;20062;-75
2022/06/28 02:57:42;;;;;;;8.18;4.25;;;23.00;99.90;;;;;;4948271;29;20055;-74
2022/06/28 03:00:28;;;;;;;7.13;4.78;;;22.90;99.90;;;;;;4935516;29;20427;-76
2022/06/28 03:03:16;;;;;;;6.97;4.15;;;23.00;99.90;;;;;;4935024;29;20087;-75
2022/06/28 03:06:03;;;;;;;8.80;4.47;;;22.90;99.90;;;;;;4935486;29;21493;-76
2022/06/28 03:08:49;;;;;;;7.07;4.50;;;23.00;99.90;;;;;;4934186;29;20427;-75
2022/06/28 03:11:34;;;;;;;14.40;6.10;;;23.00;99.90;;;;;;4935391;29;20563;-75
2022/06/28 03:14:21;;;;;;;9.63;4.72;;;23.10;99.90;;;;;;4935194;29;20144;-75
2022/06/28 03:17:06;;;;;;;9.30;4.45;;;22.90;99.90;;;;;;4934367;29;20521;-75
2022/06/28 03:19:52;;;;;;;9.05;4.50;;;22.70;99.90;;;;;;4935260;29;20055;-75
2022/06/28 03:22:38;;;;;;;9.30;4.85;;;22.80;99.90;;;;;;4935254;29;20054;-75
2022/06/28 03:25:25;;;;;;;9.00;5.43;;;22.90;99.90;;;;;;4933949;29;20404;-75
2022/06/28 03:28:10;;;;;;;6.95;5.13;;;23.00;99.90;;;;;;4934099;29;20054;-76
2022/06/28 03:30:56;;;;;;;14.68;4.93;;;23.10;99.90;;;;;;4934931;29;20126;-76
2022/06/28 03:33:42;;;;;;;8.65;4.65;;;23.00;99.90;;;;;;4934652;29;20054;-76
2022/06/28 03:36:28;;;;;;;9.18;5.22;;;23.00;99.90;;;;;;4934895;29;20107;-76
2022/06/28 03:39:14;;;;;;;11.25;5.38;;;23.10;99.90;;;;;;4934480;29;20085;-76
2022/06/28 03:42:00;;;;;;;10.98;4.97;;;23.10;99.90;;;;;;4935105;29;20055;-76
2022/06/28 03:44:46;;;;;;;12.07;5.65;;;22.80;99.90;;;;;;4934587;29;20142;-76
2022/06/28 03:47:32;;;;;;;7.60;4.97;;;22.80;99.90;;;;;;4933608;29;20059;-74
2022/06/28 03:50:18;;;;;;;10.13;5.38;;;23.00;99.90;;;;;;4934586;29;20058;-76
2022/06/28 03:53:03;;;;;;;15.32;5.82;;;23.20;99.90;;;;;;4935363;29;20103;-76
2022/06/28 03:55:49;;;;;;;8.30;5.28;;;23.10;99.90;;;;;;4934167;29;20413;-76
2022/06/28 03:58:35;;;;;;;8.60;5.05;;;23.20;99.90;;;;;;4934593;29;20132;-75
2022/06/28 04:01:20;;;;;;;9.77;5.32;;;22.90;99.90;;;;;;4934614;29;20051;-76
2022/06/28 04:04:06;;;;;;;11.75;4.93;;;22.80;99.90;;;;;;4934702;29;20190;-76
2022/06/28 04:06:53;;;;;;;8.48;4.90;;;22.80;99.90;;;;;;4934377;29;20070;-76
2022/06/28 04:09:38;;;;;;;9.82;5.35;;;22.90;99.90;;;;;;4934611;29;20580;-75
2022/06/28 04:12:24;;;;;;;8.15;4.63;;;22.60;99.90;;;;;;4934514;29;20103;-75
2022/06/28 04:15:10;;;;;;;9.77;5.20;;;22.60;99.90;;;;;;4934071;29;20055;-76
2022/06/28 04:17:56;;;;;;;7.72;4.18;;;22.90;99.90;;;;;;4934244;29;20056;-76
2022/06/28 04:20:44;;;;;;;10.50;4.82;;;23.10;99.90;;;;;;4933268;29;20531;-75
2022/06/28 04:23:30;;;;;;;7.72;4.95;;;23.10;99.90;;;;;;4932773;29;20059;-76
2022/06/28 04:26:16;;;;;;;9.00;4.85;;;23.00;99.90;;;;;;4934254;29;20062;-76
2022/06/28 04:29:02;;;;;;;8.13;5.13;;;23.10;99.90;;;;;;4933872;29;20127;-76
2022/06/28 04:31:48;;;;;;;8.00;5.10;;;23.20;99.90;;;;;;4933353;29;20147;-77
2022/06/28 04:34:34;;;;;;;12.07;5.25;;;23.20;99.90;;;;;;4934027;29;20196;-75
2022/06/28 04:37:20;;;;;;;9.52;5.13;;;23.30;99.90;;;;;;4934270;29;20046;-75
2022/06/28 04:40:06;;;;;;;8.40;5.53;;;23.30;99.90;;;;;;4933719;29;20059;-76
2022/06/28 04:42:52;;;;;;;15.23;10.98;;;23.20;99.90;;;;;;4934198;29;20107;-75
2022/06/28 04:45:38;;;;;;;77.00;52.60;;;23.00;99.90;;;;;;4933748;29;20050;-76
2022/06/28 04:48:24;;;;;;;101.22;71.38;;;23.00;99.90;;;;;;4934221;29;20059;-75
2022/06/28 04:51:10;;;;;;;24.13;17.13;;;23.30;99.90;;;;;;4933983;29;20495;-77
2022/06/28 04:53:57;;;;;;;12.02;8.30;;;23.40;99.90;;;;;;4934140;29;20535;-76
2022/06/28 04:56:43;;;;;;;14.52;7.28;;;23.50;99.90;;;;;;4933779;29;20188;-77
2022/06/28 04:59:29;;;;;;;13.50;6.63;;;23.50;99.90;;;;;;4934181;29;20062;-75
2022/06/28 05:02:15;;;;;;;9.10;6.13;;;23.50;99.90;;;;;;4933398;29;20050;-76
2022/06/28 05:05:01;;;;;;;10.13;5.75;;;23.50;99.90;;;;;;4934007;29;20058;-76
2022/06/28 05:07:47;;;;;;;11.50;6.47;;;23.50;99.90;;;;;;4934129;29;20079;-77
2022/06/28 05:10:33;;;;;;;15.10;5.68;;;23.60;99.90;;;;;;4933599;29;20073;-75
2022/06/28 05:13:19;;;;;;;10.32;5.32;;;23.60;99.90;;;;;;4933641;29;20631;-74
2022/06/28 05:16:05;;;;;;;9.60;6.13;;;23.60;99.90;;;;;;4933870;29;20054;-76
2022/06/28 05:18:51;;;;;;;11.13;5.70;;;23.80;99.90;;;;;;4933592;29;20062;-76
2022/06/28 05:21:37;;;;;;;9.70;5.22;;;23.90;99.90;;;;;;4934112;29;20082;-76
2022/06/28 05:24:23;;;;;;;8.30;5.07;;;23.80;99.90;;;;;;4933630;29;20082;-77
2022/06/28 05:27:09;;;;;;;12.27;5.97;;;23.60;99.90;;;;;;4932652;29;20420;-75
2022/06/28 05:29:55;;;;;;;13.15;6.85;;;23.80;99.90;;;;;;4933440;29;20055;-76
2022/06/28 05:32:41;;;;;;;16.75;7.13;;;23.90;99.90;;;;;;4933668;29;20111;-76
2022/06/28 05:35:27;;;;;;;13.18;6.25;;;24.10;99.90;;;;;;4934276;29;20062;-75
2022/06/28 05:38:13;;;;;;;12.00;6.43;;;24.10;99.90;;;;;;4934330;29;20062;-75
2022/06/28 05:40:58;;;;;;;9.18;5.85;;;24.10;99.90;;;;;;4935108;29;20078;-76
2022/06/28 05:43:44;;;;;;;18.77;5.85;;;24.10;99.90;;;;;;4935628;29;20515;-74
2022/06/28 05:46:32;;;;;;;10.07;5.63;;;24.10;99.90;;;;;;4935016;29;20203;-74
2022/06/28 05:49:18;;;;;;;15.40;5.38;;;24.20;99.90;;;;;;4934545;29;20060;-76
2022/06/28 05:52:06;;;;;;;9.13;5.90;;;24.30;99.90;;;;;;4936720;29;20059;-75
2022/06/28 05:54:52;;;;;;;12.32;5.65;;;24.30;99.90;;;;;;4936556;29;20119;-75
2022/06/28 05:57:38;;;;;;;8.68;5.57;;;24.50;99.90;;;;;;4936582;29;20137;-74
2022/06/28 06:00:24;;;;;;;12.60;5.95;;;24.50;99.90;;;;;;4936771;29;20403;-78
2022/06/28 06:03:10;;;;;;;7.25;4.90;;;24.40;99.90;;;;;;4936737;29;20139;-76
2022/06/28 06:05:55;;;;;;;8.27;5.28;;;24.50;99.90;;;;;;4935534;29;20546;-76
2022/06/28 06:08:41;;;;;;;8.48;5.70;;;24.60;99.90;;;;;;4936681;29;20603;-76
2022/06/28 06:11:27;;;;;;;10.00;6.53;;;24.70;99.90;;;;;;4936067;29;20529;-76
2022/06/28 06:14:16;;;;;;;11.05;5.85;;;24.60;99.90;;;;;;4936761;29;20055;-74
2022/06/28 06:17:01;;;;;;;9.13;5.47;;;24.70;99.90;;;;;;4936004;29;20157;-75
2022/06/28 06:19:47;;;;;;;8.95;5.47;;;24.70;99.90;;;;;;4935197;29;20131;-76
2022/06/28 06:22:34;;;;;;;7.85;5.35;;;24.70;99.90;;;;;;4936131;29;20055;-76
2022/06/28 06:25:19;;;;;;;10.30;5.90;;;24.80;99.90;;;;;;4935616;29;20046;-77
2022/06/28 06:28:05;;;;;;;9.05;5.20;;;24.80;99.90;;;;;;4935922;29;20639;-77
2022/06/28 06:30:52;;;;;;;10.82;5.82;;;24.90;99.90;;;;;;4936195;29;20054;-76
2022/06/28 06:33:38;;;;;;;11.45;5.70;;;24.90;99.90;;;;;;4935970;29;20423;-75
2022/06/28 06:36:23;;;;;;;15.27;6.32;;;24.90;99.90;;;;;;4936352;29;20099;-77
2022/06/28 06:39:09;;;;;;;8.52;5.50;;;24.90;99.90;;;;;;4936055;29;20688;-76
2022/06/28 06:41:55;;;;;;;13.60;5.45;;;24.90;99.90;;;;;;4935775;29;20059;-77
2022/06/28 06:44:41;;;;;;;7.63;5.03;;;24.90;99.90;;;;;;4936169;29;20063;-76
2022/06/28 06:47:27;;;;;;;8.52;5.72;;;24.90;99.90;;;;;;4935333;29;20055;-76
2022/06/28 06:50:14;;;;;;;11.82;5.97;;;24.90;99.90;;;;;;4935715;29;20515;-77
2022/06/28 06:53:02;;;;;;;14.30;4.65;;;25.00;99.90;;;;;;4934581;29;20043;-74
2022/06/28 06:55:48;;;;;;;7.40;5.40;;;25.10;99.90;;;;;;4935381;29;20055;-76
2022/06/28 06:58:34;;;;;;;12.75;5.45;;;25.10;99.90;;;;;;4935458;29;20161;-75
2022/06/28 07:01:20;;;;;;;10.23;4.95;;;25.10;99.90;;;;;;4934989;29;20503;-75
2022/06/28 07:04:26;;;;;;;7.20;5.10;;;25.30;99.90;;;;;;4934821;29;20687;-75
2022/06/28 07:07:18;;;;;;;9.88;5.30;;;25.30;99.90;;;;;;4934807;29;20078;-75
2022/06/28 07:10:04;;;;;;;10.32;4.97;;;25.30;99.90;;;;;;4934388;29;20046;-74
2022/06/28 07:12:50;;;;;;;9.13;4.70;;;25.20;99.90;;;;;;4935283;29;20059;-76
2022/06/28 07:15:36;;;;;;;8.43;5.07;;;25.30;99.90;;;;;;4934383;29;20112;-75
2022/06/28 07:18:22;;;;;;;8.27;5.97;;;25.40;99.90;;;;;;4934920;29;20062;-75
2022/06/28 07:21:09;;;;;;;7.80;5.18;;;25.40;99.90;;;;;;4935328;29;20043;-76
2022/06/28 07:23:55;;;;;;;8.13;5.10;;;25.50;99.90;;;;;;4935122;29;20062;-76
2022/06/28 07:26:41;;;;;;;8.93;4.80;;;25.60;99.90;;;;;;4935209;29;20415;-76
2022/06/28 07:29:27;;;;;;;8.00;4.93;;;25.60;99.90;;;;;;4934854;29;20054;-76
2022/06/28 07:32:13;;;;;;;7.03;4.30;;;25.70;99.90;;;;;;4934991;29;20058;-78
2022/06/28 07:34:59;;;;;;;7.63;4.65;;;25.80;99.90;;;;;;4935034;29;20107;-75
2022/06/28 07:37:46;;;;;;;10.15;4.97;;;25.80;99.90;;;;;;4916120;29;20161;-77
2022/06/28 07:40:33;;;;;;;7.78;4.10;;;25.80;99.90;;;;;;4914957;29;20067;-77
2022/06/28 07:43:19;;;;;;;8.10;4.47;;;25.90;99.90;;;;;;4915540;29;20047;-74
2022/06/28 07:46:05;;;;;;;9.40;5.15;;;25.90;99.90;;;;;;4916289;29;20404;-74
2022/06/28 07:48:52;;;;;;;8.88;4.97;;;26.00;99.90;;;;;;4915438;29;20415;-77
2022/06/28 07:54:42;;;;;;;13.43;10.60;;;26.10;99.70;;;;;;4938642;29;20128;-76
2022/06/28 07:57:28;;;;;;;16.25;10.15;;;26.30;99.60;;;;;;4952621;28;20055;-76
2022/06/28 08:00:18;;;;;;;26.08;18.20;;;26.40;99.20;;;;;;4953506;29;20567;-75
2022/06/28 08:03:05;;;;;;;126.75;85.60;;;26.40;99.20;;;;;;4953671;29;20145;-76
2022/06/28 08:05:51;;;;;;;53.92;39.78;;;26.40;99.20;;;;;;4953432;29;20650;-75
2022/06/28 08:08:37;;;;;;;25.65;19.23;;;26.50;99.10;;;;;;4953356;29;20078;-76
2022/06/28 08:11:22;;;;;;;15.80;9.63;;;26.60;99.20;;;;;;4953725;29;20062;-76
2022/06/28 08:14:11;;;;;;;12.48;6.07;;;26.50;98.60;;;;;;4953600;29;20082;-73
2022/06/28 08:16:58;;;;;;;9.45;6.10;;;26.50;98.20;;;;;;4952848;29;20046;-76
2022/06/28 08:19:43;;;;;;;10.32;6.28;;;26.50;98.80;;;;;;4948132;29;20066;-75
2022/06/28 08:22:29;;;;;;;9.85;5.75;;;26.50;98.50;;;;;;4949920;29;20054;-73
2022/06/28 08:25:15;;;;;;;10.80;5.97;;;26.50;98.30;;;;;;4951626;29;20050;-75
2022/06/28 08:28:05;;;;;;;10.02;5.93;;;26.60;98.40;;;;;;4950573;29;20046;-77
2022/06/28 08:30:51;;;;;;;11.00;5.40;;;26.70;98.40;;;;;;4951767;29;20046;-75
2022/06/28 08:33:37;;;;;;;9.77;5.75;;;26.80;98.30;;;;;;4947649;29;20149;-75
2022/06/28 08:36:23;;;;;;;11.55;6.90;;;26.90;97.90;;;;;;4948486;29;20046;-76
2022/06/28 08:39:08;;;;;;;7.47;5.30;;;27.00;97.70;;;;;;4949886;29;20059;-77
2022/06/28 08:41:54;;;;;;;7.10;5.00;;;27.00;97.80;;;;;;4952223;29;20058;-77
2022/06/28 08:44:41;;;;;;;9.32;5.32;;;27.10;97.40;;;;;;4952905;29;20119;-76
2022/06/28 08:47:32;;;;;;;9.18;4.97;;;27.00;96.20;;;;;;4953206;29;20055;-75
2022/06/28 08:50:40;;;;;;;11.57;5.63;;;27.00;95.80;;;;;;4953170;29;20062;-77
2022/06/28 08:53:28;;;;;;;7.85;5.00;;;27.10;96.60;;;;;;4953150;29;20077;-76
2022/06/28 08:56:15;;;;;;;7.85;5.03;;;26.90;97.40;;;;;;4953336;29;20057;-77
2022/06/28 08:59:01;;;;;;;10.18;5.18;;;27.00;96.70;;;;;;4952948;29;20058;-79
2022/06/28 09:01:47;;;;;;;10.60;5.00;;;27.20;96.20;;;;;;4953311;29;20046;-79
2022/06/28 09:04:33;;;;;;;6.65;4.60;;;27.20;95.90;;;;;;4951794;29;20101;-76
2022/06/28 09:07:22;;;;;;;31.25;23.42;;;27.40;95.30;;;;;;4951481;29;20095;-76
2022/06/28 09:10:08;;;;;;;28.38;21.90;;;27.50;95.20;;;;;;4955412;28;20138;-78
2022/06/28 09:13:16;;;;;;;16.15;8.98;;;27.50;94.80;;;;;;4956780;29;20103;-79
2022/06/28 09:16:04;;;;;;;8.77;4.95;;;27.50;94.70;;;;;;4956735;29;20057;-78
2022/06/28 09:18:50;;;;;;;15.88;5.50;;;27.50;95.20;;;;;;4956045;29;20046;-77
2022/06/28 09:21:42;;;;;;;10.25;4.80;;;27.60;96.80;;;;;;4956561;29;20499;-76
2022/06/28 09:24:33;;;;;;;9.73;6.93;;;27.80;96.20;;;;;;4956427;29;20049;-78
2022/06/28 09:27:36;;;;;;;25.73;19.70;;;27.80;95.30;;;;;;4955461;29;20058;-77
2022/06/28 09:30:24;;;;;;;24.17;16.83;;;28.00;94.80;;;;;;4956020;29;20138;-79
2022/06/28 09:33:25;;;;;;;9.18;5.35;;;27.90;94.10;;;;;;4956321;29;20058;-79
2022/06/28 09:36:18;;;;;;;7.07;4.47;;;27.80;93.20;;;;;;4951190;29;20046;-79
2022/06/28 09:39:16;;;;;;;8.57;5.13;;;28.00;92.40;;;;;;4937400;29;20567;-78
2022/06/28 09:42:05;;;;;;;8.40;5.05;;;28.20;92.80;;;;;;4936977;29;20412;-82
2022/06/28 09:45:07;;;;;;;7.22;5.20;;;28.30;92.20;;;;;;4937602;29;20506;-86
2022/06/28 09:47:55;;;;;;;7.55;5.20;;;28.50;92.00;;;;;;4941733;29;20098;-78
2022/06/28 09:50:57;;;;;;;7.70;4.47;;;28.40;91.30;;;;;;4948187;29;20521;-78
2022/06/28 09:53:44;;;;;;;7.10;4.53;;;28.50;91.00;;;;;;4953598;29;20050;-77
2022/06/28 09:56:55;;;;;;;5.57;4.18;;;28.60;90.80;;;;;;4950308;29;20137;-78
2022/06/28 09:59:41;;;;;;;7.82;4.38;;;28.80;91.20;;;;;;4949596;29;20054;-75
2022/06/28 10:02:28;;;;;;;7.93;4.60;;;28.80;90.10;;;;;;4946050;29;20126;-89
2022/06/28 10:05:14;;;;;;;9.52;4.68;;;28.80;87.80;;;;;;4956385;29;20058;-85
2022/06/28 10:08:01;;;;;;;7.68;4.53;;;28.90;88.40;;;;;;4955776;29;20149;-88
2022/06/28 10:10:50;;;;;;;6.22;4.10;;;29.00;88.40;;;;;;4950938;29;20129;-85
2022/06/28 10:17:13;;;;;;;7.32;4.18;;;29.20;85.40;;;;;;4949926;29;20460;-79
2022/06/28 10:20:04;;;;;;;6.75;4.65;;;29.40;84.90;;;;;;4953672;29;20161;-78
2022/06/28 10:22:50;;;;;;;7.03;3.97;;;29.30;83.80;;;;;;4955737;29;20191;-82
2022/06/28 10:25:41;;;;;;;7.32;4.05;;;29.50;83.10;;;;;;4956065;29;20057;-81
2022/06/28 10:28:33;;;;;;;6.95;4.25;;;29.70;83.30;;;;;;4954100;29;20403;-78
2022/06/28 10:31:22;;;;;;;5.65;3.95;;;29.90;82.30;;;;;;4953258;29;20598;-82
2022/06/28 10:34:51;;;;;;;13.30;5.15;;;29.90;80.90;;;;;;4917458;29;20099;-79
2022/06/28 10:38:09;;;;;;;7.28;4.07;;;29.90;83.70;;;;;;4932269;29;20058;-80
2022/06/28 10:40:55;;;;;;;6.80;3.47;;;29.90;81.50;;;;;;4935943;29;20196;-78
2022/06/28 10:43:46;;;;;;;9.95;4.03;;;29.90;81.50;;;;;;4936231;29;20526;-84
2022/06/28 10:46:32;;;;;;;7.78;3.92;;;30.10;81.60;;;;;;4936229;29;20051;-79
2022/06/28 10:49:20;;;;;;;6.55;4.07;;;30.20;79.00;;;;;;4935922;29;20058;-76
2022/06/28 10:52:25;;;;;;;6.80;4.40;;;30.20;79.60;;;;;;4936394;29;20050;-82
2022/06/28 10:55:11;;;;;;;9.45;4.43;;;30.20;80.80;;;;;;4935657;29;20088;-83
2022/06/28 10:58:07;;;;;;;8.57;4.03;;;29.90;79.90;;;;;;4935649;29;20051;-80
2022/06/28 11:00:53;;;;;;;6.00;4.55;;;30.00;78.40;;;;;;4935636;29;20424;-77
2022/06/28 11:04:17;;;;;;;9.73;3.97;;;30.10;79.70;;;;;;4935622;29;20728;-77
2022/06/28 11:07:24;;;;;;;6.68;3.97;;;30.00;78.30;;;;;;4935447;29;20051;-80
2022/06/28 11:10:16;;;;;;;7.35;3.63;;;30.40;76.30;;;;;;4935721;29;20059;-75
2022/06/28 11:13:21;;;;;;;6.47;3.85;;;30.30;76.80;;;;;;4934818;29;20066;-87
2022/06/28 11:16:10;;;;;;;8.43;4.28;;;30.50;76.90;;;;;;4936161;29;20054;-81
2022/06/28 11:19:06;;;;;;;5.70;3.88;;;30.50;76.10;;;;;;4933928;29;20192;-77
2022/06/28 11:21:54;;;;;;;17.90;12.68;;;30.80;74.90;;;;;;4935467;29;20054;-78
2022/06/28 11:24:44;;;;;;;9.90;6.53;;;30.80;76.30;;;;;;4935292;29;20050;-77
2022/06/28 11:27:31;;;;;;;12.68;5.00;;;30.90;76.40;;;;;;4935398;29;20139;-78
2022/06/28 11:30:17;;;;;;;7.53;4.03;;;30.90;74.80;;;;;;4933905;29;20127;-78
2022/06/28 11:33:03;;;;;;;7.22;4.28;;;31.00;75.00;;;;;;4934325;29;20061;-84
2022/06/28 11:35:50;;;;;;;6.22;4.20;;;31.00;74.90;;;;;;4935471;29;20285;-85
2022/06/28 11:38:35;;;;;;;7.40;4.57;;;30.90;74.20;;;;;;4936044;29;20058;-81
2022/06/28 11:41:30;;;;;;;7.28;3.90;;;31.00;74.50;;;;;;4935012;29;20054;-85
2022/06/28 11:44:16;;;;;;;6.38;4.07;;;31.10;74.20;;;;;;4934289;29;20516;-84
2022/06/28 11:47:03;;;;;;;9.27;4.40;;;30.80;74.10;;;;;;4934709;29;20146;-82
2022/06/28 11:50:12;;;;;;;10.63;3.97;;;30.80;74.70;;;;;;4935451;29;20058;-86
2022/06/28 11:52:58;;;;;;;7.20;4.22;;;31.10;74.10;;;;;;4936177;29;20156;-78
2022/06/28 11:55:45;;;;;;;6.72;4.53;;;30.80;74.20;;;;;;4935533;29;20131;-85
2022/06/28 11:58:38;;;;;;;12.90;4.10;;;31.30;74.50;;;;;;4933969;29;20055;-78
2022/06/28 12:01:24;;;;;;;7.68;4.03;;;31.70;75.00;;;;;;4934889;29;20519;-78
2022/06/28 12:04:10;;;;;;;5.50;3.50;;;31.60;73.60;;;;;;4933804;29;20063;-78
2022/06/28 12:06:56;;;;;;;7.32;3.95;;;31.50;73.40;;;;;;4934763;29;20090;-78
2022/06/28 12:09:46;;;;;;;6.60;4.35;;;31.80;73.70;;;;;;4934904;29;20082;-77
2022/06/28 12:12:32;;;;;;;8.20;4.72;;;31.70;74.30;;;;;;4933358;29;20055;-75
2022/06/28 12:15:32;;;;;;;5.88;3.92;;;31.90;74.70;;;;;;4934810;29;20047;-75
2022/06/28 12:18:19;;;;;;;8.27;3.72;;;31.80;73.60;;;;;;4934265;29;20523;-77
2022/06/28 12:21:12;;;;;;;14.88;4.35;;;31.90;72.70;;;;;;4934808;29;20183;-78
2022/06/28 12:24:00;;;;;;;7.63;4.78;;;31.00;73.00;;;;;;4915256;29;20184;-77
2022/06/28 12:26:46;;;;;;;6.13;4.10;;;30.90;73.80;;;;;;4946709;29;20062;-83
2022/06/28 12:29:33;;;;;;;5.65;3.88;;;31.70;72.90;;;;;;4953327;29;20182;-77
2022/06/28 12:32:20;;;;;;;6.35;3.65;;;31.80;70.00;;;;;;4947567;29;20046;-78
2022/06/28 12:35:26;;;;;;;5.97;3.53;;;31.90;71.10;;;;;;4953078;29;20094;-80
2022/06/28 12:38:12;;;;;;;30.80;23.85;;;32.10;71.70;;;;;;4952018;29;20065;-78
2022/06/28 12:40:58;;;;;;;40.38;32.33;;;32.10;70.90;;;;;;4952360;29;20114;-80
2022/06/28 12:43:44;;;;;;;87.35;68.57;;;32.30;69.80;;;;;;4948474;28;20058;-77
2022/06/28 12:46:30;;;;;;;51.60;41.00;;;32.00;69.60;;;;;;4955735;29;20207;-79
2022/06/28 12:49:16;;;;;;;8.80;6.45;;;32.20;70.10;;;;;;4951830;29;20266;-79
2022/06/28 12:52:01;;;;;;;6.15;3.85;;;32.40;68.50;;;;;;4950412;29;20054;-83
2022/06/28 12:54:47;;;;;;;9.98;5.15;;;32.30;69.00;;;;;;4956350;29;20527;-78
2022/06/28 12:57:33;;;;;;;10.43;4.53;;;32.20;69.40;;;;;;4923618;29;20054;-80
2022/06/28 13:00:19;;;;;;;7.10;4.00;;;32.20;68.50;;;;;;4937971;29;20047;-79
2022/06/28 13:03:09;;;;;;;5.30;3.65;;;32.00;67.60;;;;;;4949897;29;20059;-80
2022/06/28 13:05:55;;;;;;;18.23;13.80;;;32.20;67.70;;;;;;4952743;29;20525;-78
2022/06/28 13:08:45;;;;;;;109.27;86.27;;;32.20;67.20;;;;;;4954934;29;20604;-77
2022/06/28 13:11:31;;;;;;;13.65;9.98;;;32.40;66.50;;;;;;4938843;29;20055;-79
2022/06/28 13:14:18;;;;;;;8.93;5.82;;;32.60;66.70;;;;;;4956289;29;20508;-78
2022/06/28 13:17:06;;;;;;;9.20;5.25;;;32.80;66.50;;;;;;4956384;29;20439;-80
2022/06/28 13:19:53;;;;;;;7.80;3.83;;;32.80;65.60;;;;;;4956481;29;20053;-80
2022/06/28 13:22:59;;;;;;;5.90;3.83;;;32.80;66.10;;;;;;4956779;29;20175;-79
2022/06/28 13:25:44;;;;;;;5.93;3.70;;;32.90;66.10;;;;;;4956856;29;20407;-82
2022/06/28 13:28:30;;;;;;;19.70;12.13;;;33.00;64.40;;;;;;4955861;29;20074;-78
2022/06/28 13:31:16;;;;;;;28.50;20.50;;;32.90;62.60;;;;;;4955425;29;20049;-78
2022/06/28 13:34:04;;;;;;;58.70;51.55;;;32.00;59.40;;;;;;4955079;29;20110;-78
2022/06/28 13:36:50;;;;;;;14.65;9.88;;;32.10;60.70;;;;;;4953162;29;20051;-80
2022/06/28 13:39:35;;;;;;;10.25;7.25;;;32.50;58.60;;;;;;4936442;29;20047;-78
2022/06/28 13:42:21;;;;;;;9.18;5.15;;;32.20;58.20;;;;;;4950844;29;20518;-78
2022/06/28 13:45:09;;;;;;;10.52;4.90;;;32.30;59.00;;;;;;4955827;29;20075;-78
2022/06/28 13:47:56;;;;;;;17.77;7.30;;;32.40;58.70;;;;;;4955814;29;20110;-78
2022/06/28 13:50:42;;;;;;;8.30;4.03;;;32.20;58.90;;;;;;4955819;29;20046;-81
2022/06/28 13:53:35;;;;;;;7.10;3.20;;;32.80;58.80;;;;;;4956293;29;20139;-82
2022/06/28 13:56:20;;;;;;;4.15;2.42;;;33.30;60.30;;;;;;4955812;28;20083;-79
2022/06/28 13:59:06;;;;;;;5.25;2.55;;;33.00;59.20;;;;;;4956595;29;20057;-85
2022/06/28 14:01:52;;;;;;;5.70;2.78;;;33.00;58.50;;;;;;4968845;28;20050;-78
2022/06/28 14:04:39;;;;;;;7.15;3.70;;;32.70;59.10;;;;;;4956156;29;20066;-79
2022/06/28 14:07:25;;;;;;;5.72;3.22;;;32.00;57.60;;;;;;4955947;29;20054;-80
2022/06/28 14:10:11;;;;;;;8.95;3.00;;;31.40;59.40;;;;;;4954284;29;20157;-78
2022/06/28 14:12:57;;;;;;;4.22;2.75;;;31.60;59.40;;;;;;4955520;29;20546;-79
2022/06/28 14:15:43;;;;;;;5.70;2.92;;;32.10;57.60;;;;;;4954498;29;20073;-78
2022/06/28 14:18:29;;;;;;;10.50;4.03;;;32.50;57.70;;;;;;4955211;29;20411;-78
2022/06/28 14:21:15;;;;;;;4.93;2.92;;;32.70;57.30;;;;;;4954926;29;20070;-77
2022/06/28 14:24:01;;;;;;;5.35;2.90;;;31.90;56.60;;;;;;4954740;29;20111;-76
2022/06/28 14:26:47;;;;;;;4.53;2.70;;;31.10;57.10;;;;;;4955451;29;20045;-78
2022/06/28 14:29:34;;;;;;;6.97;2.83;;;31.60;60.70;;;;;;4954973;29;20154;-80
2022/06/28 14:32:20;;;;;;;6.90;3.10;;;32.70;59.50;;;;;;4953972;29;20070;-77
2022/06/28 14:35:06;;;;;;;6.50;2.80;;;32.20;58.00;;;;;;4954859;29;20529;-75
2022/06/28 14:37:52;;;;;;;5.10;3.13;;;30.80;60.70;;;;;;4945632;29;20388;-76
2022/06/28 14:40:38;;;;;;;13.18;10.15;;;31.50;60.60;;;;;;4949629;29;20054;-74
2022/06/28 14:43:25;;;;;;;5.43;3.70;;;31.70;60.60;;;;;;4954972;29;20534;-73